sensor_id;sensor_type;location;lat;lon;timestamp;P1;durP1;ratioP1;P2;durP2;ratioP2
20593;SDS011;10455;48.732;10.266;2022-07-03T00:03:10;5.47;;;4.97;;
20593;SDS011;10455;48.732;10.266;2022-07-03T00:08:12;6.33;;;5.60;;
20593;SDS011;10455;48.732;10.266;2022-07-03T00:13:14;6.13;;;5.63;;
20593;SDS011;10455;48.732;10.266;2022-07-03T00:18:18;5.47;;;5.07;;
20593;SDS011;10455;48.732;10.266;2022-07-03T00:23:21;5.70;;;5.20;;
20593;SDS011;10455;48.732;10.266;2022-07-03T00:28:24;6.10;;;5.53;;
20593;SDS011;10455;48.732;10.266;2022-07-03T00:33:28;8.07;;;7.27;;
20593;SDS011;10455;48.732;10.266;2022-07-03T00:38:34;7.40;;;6.80;;
20593;SDS011;10455;48.732;10.266;2022-07-03T00:43:36;5.90;;;5.40;;
20593;SDS011;10455;48.732;10.266;2022-07-03T00:48:40;5.37;;;4.97;;
20593;SDS011;10455;48.732;10.266;2022-07-03T00:53:47;6.07;;;5.57;;
20593;SDS011;10455;48.732;10.266;2022-07-03T00:58:52;6.00;;;5.50;;
20593;SDS011;10455;48.732;10.266;2022-07-03T01:04:00;5.93;;;5.30;;
20593;SDS011;10455;48.732;10.266;2022-07-03T01:09:26;6.00;;;5.40;;
20593;SDS011;10455;48.732;10.266;2022-07-03T01:14:40;7.03;;;6.32;;
20593;SDS011;10455;48.732;10.266;2022-07-03T01:19:50;7.47;;;6.77;;
20593;SDS011;10455;48.732;10.266;2022-07-03T01:25:10;7.57;;;6.87;;
20593;SDS011;10455;48.732;10.266;2022-07-03T01:30:16;6.00;;;5.57;;
20593;SDS011;10455;48.732;10.266;2022-07-03T01:35:21;7.57;;;5.40;;
20593;SDS011;10455;48.732;10.266;2022-07-03T01:40:28;7.90;;;7.10;;
20593;SDS011;10455;48.732;10.266;2022-07-03T01:45:35;8.20;;;7.30;;
20593;SDS011;10455;48.732;10.266;2022-07-03T01:50:40;8.00;;;6.80;;
20593;SDS011;10455;48.732;10.266;2022-07-03T01:55:44;8.23;;;7.50;;
20593;SDS011;10455;48.732;10.266;2022-07-03T02:00:50;8.97;;;8.07;;
20593;SDS011;10455;48.732;10.266;2022-07-03T02:06:01;9.40;;;8.50;;
20593;SDS011;10455;48.732;10.266;2022-07-03T02:11:09;8.13;;;7.50;;
20593;SDS011;10455;48.732;10.266;2022-07-03T02:16:17;6.23;;;5.57;;
20593;SDS011;10455;48.732;10.266;2022-07-03T02:21:22;8.10;;;7.40;;
20593;SDS011;10455;48.732;10.266;2022-07-03T02:26:29;7.97;;;7.20;;
20593;SDS011;10455;48.732;10.266;2022-07-03T02:31:37;7.23;;;6.63;;
20593;SDS011;10455;48.732;10.266;2022-07-03T02:36:43;7.27;;;6.43;;
20593;SDS011;10455;48.732;10.266;2022-07-03T02:41:49;8.83;;;6.40;;
20593;SDS011;10455;48.732;10.266;2022-07-03T02:46:58;9.07;;;8.27;;
20593;SDS011;10455;48.732;10.266;2022-07-03T02:52:08;7.23;;;6.63;;
20593;SDS011;10455;48.732;10.266;2022-07-03T02:57:16;9.17;;;8.20;;
20593;SDS011;10455;48.732;10.266;2022-07-03T03:02:25;7.40;;;6.70;;
20593;SDS011;10455;48.732;10.266;2022-07-03T03:07:42;8.43;;;7.60;;
20593;SDS011;10455;48.732;10.266;2022-07-03T03:12:54;6.53;;;5.90;;
20593;SDS011;10455;48.732;10.266;2022-07-03T03:18:05;7.40;;;6.70;;
20593;SDS011;10455;48.732;10.266;2022-07-03T03:23:09;10.37;;;7.30;;
20593;SDS011;10455;48.732;10.266;2022-07-03T03:28:20;7.93;;;7.13;;
20593;SDS011;10455;48.732;10.266;2022-07-03T03:33:24;7.20;;;6.60;;
20593;SDS011;10455;48.732;10.266;2022-07-03T03:38:27;7.23;;;6.50;;
20593;SDS011;10455;48.732;10.266;2022-07-03T03:43:29;7.23;;;6.63;;
20593;SDS011;10455;48.732;10.266;2022-07-03T03:48:33;9.80;;;8.63;;
20593;SDS011;10455;48.732;10.266;2022-07-03T03:53:36;8.03;;;6.70;;
20593;SDS011;10455;48.732;10.266;2022-07-03T03:58:38;8.13;;;7.43;;
20593;SDS011;10455;48.732;10.266;2022-07-03T04:03:42;8.57;;;7.80;;
20593;SDS011;10455;48.732;10.266;2022-07-03T04:08:45;5.60;;;5.20;;
20593;SDS011;10455;48.732;10.266;2022-07-03T04:13:47;8.10;;;7.30;;
20593;SDS011;10455;48.732;10.266;2022-07-03T04:18:50;5.20;;;4.80;;
20593;SDS011;10455;48.732;10.266;2022-07-03T04:23:52;4.70;;;4.30;;
20593;SDS011;10455;48.732;10.266;2022-07-03T04:28:54;3.83;;;3.47;;
20593;SDS011;10455;48.732;10.266;2022-07-03T04:33:58;2.72;;;2.42;;
20593;SDS011;10455;48.732;10.266;2022-07-03T04:39:00;2.63;;;2.42;;
20593;SDS011;10455;48.732;10.266;2022-07-03T04:44:02;3.88;;;2.20;;
20593;SDS011;10455;48.732;10.266;2022-07-03T04:49:06;3.63;;;2.08;;
20593;SDS011;10455;48.732;10.266;2022-07-03T04:54:09;2.30;;;2.10;;
20593;SDS011;10455;48.732;10.266;2022-07-03T04:59:11;2.83;;;1.98;;
20593;SDS011;10455;48.732;10.266;2022-07-03T05:04:14;4.47;;;2.20;;
20593;SDS011;10455;48.732;10.266;2022-07-03T05:09:16;2.05;;;1.88;;
20593;SDS011;10455;48.732;10.266;2022-07-03T05:14:19;2.20;;;2.00;;
20593;SDS011;10455;48.732;10.266;2022-07-03T05:19:23;3.60;;;2.22;;
20593;SDS011;10455;48.732;10.266;2022-07-03T05:24:25;2.30;;;2.00;;
20593;SDS011;10455;48.732;10.266;2022-07-03T05:29:27;1.80;;;1.70;;
20593;SDS011;10455;48.732;10.266;2022-07-03T05:34:31;3.03;;;1.65;;
20593;SDS011;10455;48.732;10.266;2022-07-03T05:39:33;1.80;;;1.70;;
20593;SDS011;10455;48.732;10.266;2022-07-03T05:44:38;1.73;;;1.60;;
20593;SDS011;10455;48.732;10.266;2022-07-03T05:49:41;3.13;;;1.40;;
20593;SDS011;10455;48.732;10.266;2022-07-03T05:54:43;1.55;;;1.45;;
20593;SDS011;10455;48.732;10.266;2022-07-03T05:59:45;1.63;;;1.52;;
20593;SDS011;10455;48.732;10.266;2022-07-03T06:04:49;2.63;;;1.75;;
20593;SDS011;10455;48.732;10.266;2022-07-03T06:09:51;2.83;;;1.67;;
20593;SDS011;10455;48.732;10.266;2022-07-03T06:14:54;1.67;;;1.58;;
20593;SDS011;10455;48.732;10.266;2022-07-03T06:19:57;1.50;;;1.40;;
20593;SDS011;10455;48.732;10.266;2022-07-03T06:24:59;2.30;;;1.40;;
20593;SDS011;10455;48.732;10.266;2022-07-03T06:30:02;1.40;;;1.30;;
20593;SDS011;10455;48.732;10.266;2022-07-03T06:35:06;1.70;;;1.52;;
20593;SDS011;10455;48.732;10.266;2022-07-03T06:40:09;1.50;;;1.40;;
20593;SDS011;10455;48.732;10.266;2022-07-03T06:45:12;1.73;;;1.42;;
20593;SDS011;10455;48.732;10.266;2022-07-03T06:50:15;1.50;;;1.40;;
20593;SDS011;10455;48.732;10.266;2022-07-03T06:55:18;1.67;;;1.30;;
20593;SDS011;10455;48.732;10.266;2022-07-03T07:00:20;1.55;;;1.35;;
20593;SDS011;10455;48.732;10.266;2022-07-03T07:05:23;2.15;;;1.30;;
20593;SDS011;10455;48.732;10.266;2022-07-03T07:10:25;2.22;;;1.40;;
20593;SDS011;10455;48.732;10.266;2022-07-03T07:15:28;1.40;;;1.30;;
20593;SDS011;10455;48.732;10.266;2022-07-03T07:20:31;1.50;;;1.40;;
20593;SDS011;10455;48.732;10.266;2022-07-03T07:25:33;1.40;;;1.30;;
20593;SDS011;10455;48.732;10.266;2022-07-03T07:30:35;1.70;;;1.60;;
20593;SDS011;10455;48.732;10.266;2022-07-03T07:35:41;1.30;;;1.20;;
20593;SDS011;10455;48.732;10.266;2022-07-03T07:40:43;2.95;;;1.38;;
20593;SDS011;10455;48.732;10.266;2022-07-03T07:45:45;1.73;;;1.40;;
20593;SDS011;10455;48.732;10.266;2022-07-03T07:50:49;1.48;;;1.38;;
20593;SDS011;10455;48.732;10.266;2022-07-03T07:55:51;1.40;;;1.30;;
20593;SDS011;10455;48.732;10.266;2022-07-03T08:00:54;1.38;;;1.27;;
20593;SDS011;10455;48.732;10.266;2022-07-03T08:06:14;2.13;;;1.23;;
20593;SDS011;10455;48.732;10.266;2022-07-03T08:11:17;1.30;;;1.20;;
20593;SDS011;10455;48.732;10.266;2022-07-03T08:16:19;1.30;;;1.20;;
20593;SDS011;10455;48.732;10.266;2022-07-03T08:21:22;1.35;;;1.10;;
20593;SDS011;10455;48.732;10.266;2022-07-03T08:26:24;1.73;;;1.20;;
20593;SDS011;10455;48.732;10.266;2022-07-03T08:31:27;1.67;;;1.30;;
20593;SDS011;10455;48.732;10.266;2022-07-03T08:36:30;2.25;;;1.30;;
20593;SDS011;10455;48.732;10.266;2022-07-03T08:41:32;1.50;;;1.40;;
20593;SDS011;10455;48.732;10.266;2022-07-03T08:46:38;1.65;;;1.30;;
20593;SDS011;10455;48.732;10.266;2022-07-03T08:51:42;1.80;;;1.40;;
20593;SDS011;10455;48.732;10.266;2022-07-03T08:56:46;1.52;;;1.20;;
20593;SDS011;10455;48.732;10.266;2022-07-03T09:01:49;2.75;;;1.30;;
20593;SDS011;10455;48.732;10.266;2022-07-03T09:06:54;1.10;;;1.10;;
20593;SDS011;10455;48.732;10.266;2022-07-03T09:11:58;2.42;;;1.30;;
20593;SDS011;10455;48.732;10.266;2022-07-03T09:17:00;1.73;;;1.35;;
20593;SDS011;10455;48.732;10.266;2022-07-03T09:22:04;1.38;;;1.20;;
20593;SDS011;10455;48.732;10.266;2022-07-03T09:27:20;1.30;;;1.20;;
20593;SDS011;10455;48.732;10.266;2022-07-03T09:32:24;1.17;;;1.08;;
20593;SDS011;10455;48.732;10.266;2022-07-03T09:37:28;1.10;;;1.00;;
20593;SDS011;10455;48.732;10.266;2022-07-03T09:42:33;1.10;;;1.10;;
20593;SDS011;10455;48.732;10.266;2022-07-03T09:47:35;1.10;;;1.10;;
20593;SDS011;10455;48.732;10.266;2022-07-03T09:52:39;2.95;;;1.20;;
20593;SDS011;10455;48.732;10.266;2022-07-03T09:57:43;2.47;;;1.17;;
20593;SDS011;10455;48.732;10.266;2022-07-03T10:02:56;1.65;;;1.10;;
20593;SDS011;10455;48.732;10.266;2022-07-03T10:08:01;1.02;;;1.02;;
20593;SDS011;10455;48.732;10.266;2022-07-03T10:13:05;1.02;;;1.00;;
20593;SDS011;10455;48.732;10.266;2022-07-03T10:18:07;1.25;;;1.15;;
20593;SDS011;10455;48.732;10.266;2022-07-03T10:23:11;1.50;;;1.40;;
20593;SDS011;10455;48.732;10.266;2022-07-03T10:28:16;2.25;;;2.10;;
20593;SDS011;10455;48.732;10.266;2022-07-03T10:33:19;2.55;;;2.33;;
20593;SDS011;10455;48.732;10.266;2022-07-03T10:43:51;1.38;;;1.27;;
20593;SDS011;10455;48.732;10.266;2022-07-03T10:49:11;1.20;;;1.10;;
20593;SDS011;10455;48.732;10.266;2022-07-03T10:54:19;1.05;;;1.00;;
20593;SDS011;10455;48.732;10.266;2022-07-03T10:59:22;1.58;;;1.13;;
20593;SDS011;10455;48.732;10.266;2022-07-03T11:04:24;1.33;;;1.00;;
20593;SDS011;10455;48.732;10.266;2022-07-03T11:09:27;2.15;;;1.95;;
20593;SDS011;10455;48.732;10.266;2022-07-03T11:14:30;1.27;;;1.10;;
20593;SDS011;10455;48.732;10.266;2022-07-03T11:19:33;1.23;;;1.10;;
20593;SDS011;10455;48.732;10.266;2022-07-03T11:24:38;0.90;;;0.90;;
20593;SDS011;10455;48.732;10.266;2022-07-03T11:29:47;1.13;;;1.02;;
20593;SDS011;10455;48.732;10.266;2022-07-03T11:34:51;1.25;;;1.10;;
20593;SDS011;10455;48.732;10.266;2022-07-03T11:39:54;1.20;;;1.10;;
20593;SDS011;10455;48.732;10.266;2022-07-03T11:45:03;1.20;;;1.15;;
20593;SDS011;10455;48.732;10.266;2022-07-03T11:50:07;1.08;;;1.08;;
20593;SDS011;10455;48.732;10.266;2022-07-03T11:55:10;1.75;;;1.20;;
20593;SDS011;10455;48.732;10.266;2022-07-03T12:00:13;1.30;;;1.20;;
20593;SDS011;10455;48.732;10.266;2022-07-03T12:05:15;1.20;;;1.10;;
20593;SDS011;10455;48.732;10.266;2022-07-03T12:10:19;1.85;;;1.30;;
20593;SDS011;10455;48.732;10.266;2022-07-03T12:15:21;1.60;;;1.10;;
20593;SDS011;10455;48.732;10.266;2022-07-03T12:20:23;1.30;;;1.20;;
20593;SDS011;10455;48.732;10.266;2022-07-03T12:25:30;1.30;;;1.20;;
20593;SDS011;10455;48.732;10.266;2022-07-03T12:30:32;1.20;;;1.10;;
20593;SDS011;10455;48.732;10.266;2022-07-03T12:35:34;1.27;;;1.17;;
20593;SDS011;10455;48.732;10.266;2022-07-03T12:40:38;1.30;;;1.20;;
20593;SDS011;10455;48.732;10.266;2022-07-03T12:45:40;1.30;;;1.20;;
20593;SDS011;10455;48.732;10.266;2022-07-03T12:50:45;1.10;;;1.10;;
20593;SDS011;10455;48.732;10.266;2022-07-03T12:55:50;1.10;;;1.05;;
20593;SDS011;10455;48.732;10.266;2022-07-03T13:00:52;1.70;;;1.40;;
20593;SDS011;10455;48.732;10.266;2022-07-03T13:05:54;1.50;;;1.20;;
20593;SDS011;10455;48.732;10.266;2022-07-03T13:10:58;2.58;;;1.30;;
20593;SDS011;10455;48.732;10.266;2022-07-03T13:16:00;1.42;;;1.10;;
20593;SDS011;10455;48.732;10.266;2022-07-03T13:21:23;1.25;;;1.15;;
20593;SDS011;10455;48.732;10.266;2022-07-03T13:26:26;1.25;;;1.15;;
20593;SDS011;10455;48.732;10.266;2022-07-03T13:31:29;1.35;;;1.25;;
20593;SDS011;10455;48.732;10.266;2022-07-03T13:36:31;1.23;;;1.13;;
20593;SDS011;10455;48.732;10.266;2022-07-03T13:41:35;2.05;;;1.30;;
20593;SDS011;10455;48.732;10.266;2022-07-03T13:46:38;2.10;;;1.20;;
20593;SDS011;10455;48.732;10.266;2022-07-03T13:51:40;1.13;;;1.00;;
20593;SDS011;10455;48.732;10.266;2022-07-03T13:56:44;2.35;;;1.20;;
20593;SDS011;10455;48.732;10.266;2022-07-03T14:01:46;2.72;;;1.20;;
20593;SDS011;10455;48.732;10.266;2022-07-03T14:06:48;1.75;;;1.45;;
20593;SDS011;10455;48.732;10.266;2022-07-03T14:11:52;1.75;;;1.10;;
20593;SDS011;10455;48.732;10.266;2022-07-03T14:16:54;1.35;;;1.25;;
20593;SDS011;10455;48.732;10.266;2022-07-03T14:21:56;1.20;;;1.10;;
20593;SDS011;10455;48.732;10.266;2022-07-03T14:27:00;1.50;;;1.17;;
20593;SDS011;10455;48.732;10.266;2022-07-03T14:32:19;1.00;;;1.00;;
20593;SDS011;10455;48.732;10.266;2022-07-03T14:37:31;1.10;;;1.00;;
20593;SDS011;10455;48.732;10.266;2022-07-03T14:42:35;1.77;;;1.10;;
20593;SDS011;10455;48.732;10.266;2022-07-03T14:47:37;1.77;;;1.30;;
20593;SDS011;10455;48.732;10.266;2022-07-03T14:52:39;4.28;;;1.30;;
20593;SDS011;10455;48.732;10.266;2022-07-03T14:57:45;1.40;;;1.10;;
20593;SDS011;10455;48.732;10.266;2022-07-03T15:03:03;1.63;;;1.10;;
20593;SDS011;10455;48.732;10.266;2022-07-03T15:08:10;1.80;;;1.20;;
20593;SDS011;10455;48.732;10.266;2022-07-03T15:13:35;1.00;;;0.90;;
20593;SDS011;10455;48.732;10.266;2022-07-03T15:18:37;1.98;;;1.30;;
20593;SDS011;10455;48.732;10.266;2022-07-03T15:23:40;1.25;;;1.15;;
20593;SDS011;10455;48.732;10.266;2022-07-03T15:28:44;1.50;;;1.00;;
20593;SDS011;10455;48.732;10.266;2022-07-03T15:33:46;1.30;;;1.20;;
20593;SDS011;10455;48.732;10.266;2022-07-03T15:38:50;1.10;;;1.10;;
20593;SDS011;10455;48.732;10.266;2022-07-03T15:44:10;1.83;;;1.10;;
20593;SDS011;10455;48.732;10.266;2022-07-03T15:49:28;1.00;;;1.00;;
20593;SDS011;10455;48.732;10.266;2022-07-03T15:54:32;1.48;;;0.80;;
20593;SDS011;10455;48.732;10.266;2022-07-03T15:59:39;1.35;;;1.20;;
20593;SDS011;10455;48.732;10.266;2022-07-03T16:04:52;1.85;;;1.00;;
20593;SDS011;10455;48.732;10.266;2022-07-03T16:10:08;1.40;;;1.10;;
20593;SDS011;10455;48.732;10.266;2022-07-03T16:15:13;1.73;;;1.20;;
20593;SDS011;10455;48.732;10.266;2022-07-03T16:20:16;2.55;;;1.20;;
20593;SDS011;10455;48.732;10.266;2022-07-03T16:25:20;3.88;;;1.50;;
20593;SDS011;10455;48.732;10.266;2022-07-03T16:30:27;1.75;;;1.33;;
20593;SDS011;10455;48.732;10.266;2022-07-03T16:35:34;1.40;;;1.30;;
20593;SDS011;10455;48.732;10.266;2022-07-03T16:40:40;1.17;;;1.08;;
20593;SDS011;10455;48.732;10.266;2022-07-03T16:45:45;1.40;;;1.20;;
20593;SDS011;10455;48.732;10.266;2022-07-03T16:50:52;2.10;;;1.25;;
20593;SDS011;10455;48.732;10.266;2022-07-03T16:55:57;2.30;;;1.50;;
20593;SDS011;10455;48.732;10.266;2022-07-03T17:01:03;1.30;;;1.25;;
20593;SDS011;10455;48.732;10.266;2022-07-03T17:06:06;1.30;;;1.20;;
20593;SDS011;10455;48.732;10.266;2022-07-03T17:11:10;1.45;;;1.17;;
20593;SDS011;10455;48.732;10.266;2022-07-03T17:16:14;1.15;;;1.15;;
20593;SDS011;10455;48.732;10.266;2022-07-03T17:21:19;1.45;;;1.35;;
20593;SDS011;10455;48.732;10.266;2022-07-03T17:26:31;1.40;;;1.30;;
20593;SDS011;10455;48.732;10.266;2022-07-03T17:31:38;1.55;;;1.30;;
20593;SDS011;10455;48.732;10.266;2022-07-03T17:36:43;1.90;;;1.30;;
20593;SDS011;10455;48.732;10.266;2022-07-03T17:41:46;1.55;;;1.45;;
20593;SDS011;10455;48.732;10.266;2022-07-03T17:46:50;6.32;;;2.50;;
20593;SDS011;10455;48.732;10.266;2022-07-03T17:51:57;1.75;;;1.40;;
20593;SDS011;10455;48.732;10.266;2022-07-03T17:57:01;3.42;;;2.30;;
20593;SDS011;10455;48.732;10.266;2022-07-03T18:02:26;3.60;;;1.65;;
20593;SDS011;10455;48.732;10.266;2022-07-03T18:07:32;4.07;;;1.50;;
20593;SDS011;10455;48.732;10.266;2022-07-03T18:12:41;2.42;;;2.10;;
20593;SDS011;10455;48.732;10.266;2022-07-03T18:17:52;2.55;;;1.55;;
20593;SDS011;10455;48.732;10.266;2022-07-03T18:22:57;2.15;;;1.63;;
20593;SDS011;10455;48.732;10.266;2022-07-03T18:28:02;4.93;;;3.53;;
20593;SDS011;10455;48.732;10.266;2022-07-03T18:33:06;2.17;;;1.50;;
20593;SDS011;10455;48.732;10.266;2022-07-03T18:38:11;3.60;;;1.58;;
20593;SDS011;10455;48.732;10.266;2022-07-03T18:43:14;6.20;;;5.20;;
20593;SDS011;10455;48.732;10.266;2022-07-03T18:48:18;8.63;;;7.72;;
20593;SDS011;10455;48.732;10.266;2022-07-03T18:53:29;1.63;;;1.52;;
20593;SDS011;10455;48.732;10.266;2022-07-03T18:58:53;1.92;;;1.73;;
20593;SDS011;10455;48.732;10.266;2022-07-03T19:04:08;2.70;;;2.50;;
20593;SDS011;10455;48.732;10.266;2022-07-03T19:09:31;2.72;;;1.80;;
20593;SDS011;10455;48.732;10.266;2022-07-03T19:14:40;1.70;;;1.60;;
20593;SDS011;10455;48.732;10.266;2022-07-03T19:19:46;2.88;;;1.90;;
20593;SDS011;10455;48.732;10.266;2022-07-03T19:24:48;2.67;;;1.90;;
20593;SDS011;10455;48.732;10.266;2022-07-03T19:29:51;2.20;;;2.00;;
20593;SDS011;10455;48.732;10.266;2022-07-03T19:34:55;2.65;;;1.95;;
20593;SDS011;10455;48.732;10.266;2022-07-03T19:39:57;3.55;;;2.20;;
20593;SDS011;10455;48.732;10.266;2022-07-03T19:45:00;2.80;;;2.20;;
20593;SDS011;10455;48.732;10.266;2022-07-03T19:50:11;2.92;;;2.03;;
20593;SDS011;10455;48.732;10.266;2022-07-03T19:55:13;3.15;;;2.17;;
20593;SDS011;10455;48.732;10.266;2022-07-03T20:00:18;5.57;;;2.33;;
20593;SDS011;10455;48.732;10.266;2022-07-03T20:05:27;2.05;;;1.95;;
20593;SDS011;10455;48.732;10.266;2022-07-03T20:10:30;12.38;;;2.30;;
20593;SDS011;10455;48.732;10.266;2022-07-03T20:15:32;3.50;;;1.83;;
20593;SDS011;10455;48.732;10.266;2022-07-03T20:20:36;3.13;;;2.00;;
20593;SDS011;10455;48.732;10.266;2022-07-03T20:25:39;3.65;;;2.03;;
20593;SDS011;10455;48.732;10.266;2022-07-03T20:30:42;2.53;;;2.15;;
20593;SDS011;10455;48.732;10.266;2022-07-03T20:35:46;2.30;;;2.05;;
20593;SDS011;10455;48.732;10.266;2022-07-03T20:40:48;2.33;;;2.13;;
20593;SDS011;10455;48.732;10.266;2022-07-03T20:45:51;3.22;;;2.00;;
20593;SDS011;10455;48.732;10.266;2022-07-03T20:50:55;2.78;;;2.17;;
20593;SDS011;10455;48.732;10.266;2022-07-03T20:55:58;2.00;;;1.90;;
20593;SDS011;10455;48.732;10.266;2022-07-03T21:01:00;2.15;;;1.95;;
20593;SDS011;10455;48.732;10.266;2022-07-03T21:06:03;2.00;;;1.80;;
20593;SDS011;10455;48.732;10.266;2022-07-03T21:11:25;2.33;;;2.13;;
20593;SDS011;10455;48.732;10.266;2022-07-03T21:16:34;2.65;;;2.20;;
20593;SDS011;10455;48.732;10.266;2022-07-03T21:21:39;2.30;;;2.10;;
20593;SDS011;10455;48.732;10.266;2022-07-03T21:26:41;2.80;;;2.30;;
20593;SDS011;10455;48.732;10.266;2022-07-03T21:31:44;2.40;;;2.20;;
20593;SDS011;10455;48.732;10.266;2022-07-03T21:36:48;2.83;;;2.05;;
20593;SDS011;10455;48.732;10.266;2022-07-03T21:41:51;2.38;;;2.20;;
20593;SDS011;10455;48.732;10.266;2022-07-03T21:46:53;2.30;;;2.10;;
20593;SDS011;10455;48.732;10.266;2022-07-03T21:51:56;3.92;;;2.60;;
20593;SDS011;10455;48.732;10.266;2022-07-03T21:56:59;2.30;;;2.10;;
20593;SDS011;10455;48.732;10.266;2022-07-03T22:02:01;3.28;;;2.80;;
20593;SDS011;10455;48.732;10.266;2022-07-03T22:07:04;4.20;;;2.47;;
20593;SDS011;10455;48.732;10.266;2022-07-03T22:12:07;2.28;;;2.08;;
20593;SDS011;10455;48.732;10.266;2022-07-03T22:17:27;3.50;;;2.38;;
20593;SDS011;10455;48.732;10.266;2022-07-03T22:22:31;2.50;;;2.30;;
20593;SDS011;10455;48.732;10.266;2022-07-03T22:27:34;2.35;;;2.13;;
20593;SDS011;10455;48.732;10.266;2022-07-03T22:32:38;2.28;;;2.17;;
20593;SDS011;10455;48.732;10.266;2022-07-03T22:37:43;2.13;;;2.00;;
20593;SDS011;10455;48.732;10.266;2022-07-03T22:42:46;3.67;;;2.30;;
20593;SDS011;10455;48.732;10.266;2022-07-03T22:47:49;2.20;;;2.00;;
20593;SDS011;10455;48.732;10.266;2022-07-03T22:52:53;3.15;;;2.08;;
20593;SDS011;10455;48.732;10.266;2022-07-03T22:57:55;2.47;;;1.92;;
20593;SDS011;10455;48.732;10.266;2022-07-03T23:02:57;2.70;;;2.00;;
20593;SDS011;10455;48.732;10.266;2022-07-03T23:08:01;2.72;;;2.17;;
20593;SDS011;10455;48.732;10.266;2022-07-03T23:13:03;4.25;;;2.15;;
20593;SDS011;10455;48.732;10.266;2022-07-03T23:18:05;2.10;;;1.90;;
20593;SDS011;10455;48.732;10.266;2022-07-03T23:23:09;2.65;;;2.20;;
20593;SDS011;10455;48.732;10.266;2022-07-03T23:28:11;2.45;;;1.92;;
20593;SDS011;10455;48.732;10.266;2022-07-03T23:33:13;2.70;;;2.00;;
20593;SDS011;10455;48.732;10.266;2022-07-03T23:38:17;2.63;;;2.10;;
20593;SDS011;10455;48.732;10.266;2022-07-03T23:43:19;2.13;;;1.92;;
20593;SDS011;10455;48.732;10.266;2022-07-03T23:48:22;2.78;;;1.83;;
20593;SDS011;10455;48.732;10.266;2022-07-03T23:53:43;2.88;;;2.00;;
20593;SDS011;10455;48.732;10.266;2022-07-03T23:58:45;2.13;;;1.92;;
